createdAt,value
2023-01-17T00:02:48.580Z,17.80
2023-01-17T00:06:09.900Z,18.50
2023-01-17T00:09:33.698Z,24.50
2023-01-17T00:12:36.768Z,25.00
2023-01-17T00:15:40.103Z,26.00
2023-01-17T00:19:02.994Z,24.50
2023-01-17T00:22:38.590Z,22.00
2023-01-17T00:26:00.027Z,22.90
2023-01-17T00:29:02.745Z,22.80
2023-01-17T00:32:07.607Z,23.50
2023-01-17T00:35:10.279Z,21.10
2023-01-17T00:38:18.961Z,22.50
2023-01-17T00:41:21.667Z,25.20
2023-01-17T00:44:43.361Z,31.90
2023-01-17T00:48:05.633Z,22.70
2023-01-17T00:51:27.017Z,20.70
2023-01-17T00:54:48.607Z,27.50
2023-01-17T00:58:12.225Z,24.70
2023-01-17T01:01:33.534Z,23.30
2023-01-17T01:04:57.217Z,27.20
2023-01-17T01:08:19.142Z,30.20
2023-01-17T01:11:40.724Z,29.10
2023-01-17T01:15:02.125Z,31.70
2023-01-17T01:18:28.016Z,32.90
2023-01-17T01:21:49.621Z,28.40
2023-01-17T01:25:10.858Z,23.60
2023-01-17T01:28:33.520Z,30.70
2023-01-17T01:31:55.015Z,28.90
2023-01-17T01:38:14.416Z,26.30
2023-01-17T01:41:20.340Z,28.80
2023-01-17T01:44:48.971Z,26.30
2023-01-17T01:47:56.634Z,28.90
2023-01-17T01:51:01.441Z,30.80
2023-01-17T01:54:16.629Z,36.10
2023-01-17T01:57:24.142Z,26.50
2023-01-17T02:00:30.775Z,32.80
2023-01-17T02:03:35.072Z,33.10
2023-01-17T02:06:42.044Z,35.30
2023-01-17T02:09:45.249Z,32.40
2023-01-17T02:12:49.453Z,32.40
2023-01-17T02:16:13.876Z,29.40
2023-01-17T02:19:48.263Z,36.60
2023-01-17T02:23:12.616Z,31.60
2023-01-17T02:26:44.785Z,30.00
2023-01-17T02:30:25.144Z,27.00
2023-01-17T02:33:39.411Z,28.70
2023-01-17T02:36:48.510Z,32.50
2023-01-17T02:40:05.130Z,32.80
2023-01-17T02:43:13.849Z,31.30
2023-01-17T02:46:16.710Z,27.90
2023-01-17T02:49:22.231Z,31.00
2023-01-17T02:52:55.795Z,31.00
2023-01-17T02:55:58.551Z,28.00
2023-01-17T02:59:54.077Z,31.10
2023-01-17T03:03:27.144Z,28.40
2023-01-17T03:06:38.857Z,37.60
2023-01-17T03:09:43.936Z,26.70
2023-01-17T03:12:47.180Z,31.90
2023-01-17T03:15:50.444Z,29.10
2023-01-17T03:18:54.000Z,22.40
2023-01-17T03:21:57.290Z,20.60
2023-01-17T03:25:00.046Z,24.20
2023-01-17T03:28:02.783Z,27.30
2023-01-17T03:31:05.977Z,24.20
2023-01-17T03:34:09.431Z,26.30
2023-01-17T03:37:12.311Z,22.40
2023-01-17T03:40:15.305Z,29.70
2023-01-17T03:43:20.214Z,28.70
2023-01-17T03:46:25.842Z,25.40
2023-01-17T03:49:29.230Z,24.30
2023-01-17T03:52:32.724Z,28.40
2023-01-17T03:55:35.489Z,25.50
2023-01-17T03:58:38.501Z,27.20
2023-01-17T04:01:42.336Z,31.50
2023-01-17T04:04:45.281Z,21.70
2023-01-17T04:07:47.991Z,30.80
2023-01-17T04:10:50.875Z,24.50
2023-01-17T04:13:54.234Z,23.00
2023-01-17T04:16:57.590Z,25.20
2023-01-17T04:20:03.089Z,30.10
2023-01-17T04:23:06.642Z,34.70
2023-01-17T04:26:12.549Z,32.10
2023-01-17T04:29:15.275Z,32.40
2023-01-17T04:32:18.536Z,33.60
2023-01-17T04:35:21.939Z,34.30
2023-01-17T04:38:26.960Z,32.90
2023-01-17T04:41:29.852Z,33.90
2023-01-17T04:44:32.612Z,31.60
2023-01-17T04:47:35.351Z,27.90
2023-01-17T04:50:38.824Z,37.00
2023-01-17T04:53:41.630Z,33.80
2023-01-17T04:56:44.792Z,31.00
2023-01-17T04:59:47.973Z,35.10
2023-01-17T05:02:54.721Z,36.60
2023-01-17T05:09:03.359Z,32.60
2023-01-17T05:12:06.216Z,33.30
2023-01-17T05:15:11.593Z,35.30
2023-01-17T05:18:16.977Z,30.60
2023-01-17T05:21:21.722Z,33.00
2023-01-17T05:24:26.094Z,41.40
2023-01-17T05:27:29.637Z,33.70
2023-01-17T05:30:33.157Z,29.80
2023-01-17T05:33:35.926Z,39.10
2023-01-17T05:36:38.627Z,37.30
2023-01-17T05:39:41.372Z,37.10
2023-01-17T05:42:50.957Z,38.10
2023-01-17T05:45:54.120Z,65.30
2023-01-17T05:48:56.831Z,49.00
2023-01-17T05:52:01.814Z,44.60
2023-01-17T05:55:06.755Z,48.80
2023-01-17T05:58:15.352Z,45.90
2023-01-17T06:01:19.805Z,42.20
2023-01-17T06:04:22.722Z,47.80
2023-01-17T06:07:25.585Z,37.40
2023-01-17T06:10:29.561Z,38.10
2023-01-17T06:13:33.991Z,36.60
2023-01-17T06:16:36.881Z,36.40
2023-01-17T06:19:41.968Z,30.70
2023-01-17T06:22:44.861Z,25.30
2023-01-17T06:25:50.065Z,23.10
2023-01-17T06:28:52.790Z,22.40
2023-01-17T06:31:55.509Z,31.30
2023-01-17T06:34:58.397Z,23.80
2023-01-17T06:38:03.190Z,22.70
2023-01-17T06:41:06.303Z,21.30
2023-01-17T06:44:10.203Z,16.20
2023-01-17T06:47:12.943Z,17.00
2023-01-17T06:50:16.369Z,16.10
2023-01-17T06:53:19.096Z,20.70
2023-01-17T06:56:22.026Z,17.80
2023-01-17T06:59:24.801Z,20.30
2023-01-17T07:02:27.504Z,17.60
2023-01-17T07:05:30.486Z,18.00
2023-01-17T07:08:33.197Z,19.70
2023-01-17T07:11:35.980Z,14.60
2023-01-17T07:14:38.688Z,13.50
2023-01-17T07:17:43.357Z,13.40
2023-01-17T07:20:46.935Z,20.20
2023-01-17T07:23:49.697Z,15.30
2023-01-17T07:26:53.328Z,12.90
2023-01-17T07:29:57.158Z,13.70
2023-01-17T07:33:01.948Z,11.70
2023-01-17T07:36:09.448Z,10.80
2023-01-17T07:39:12.318Z,11.70
2023-01-17T07:42:17.678Z,11.20
2023-01-17T07:45:21.991Z,11.30
2023-01-17T07:48:25.272Z,23.60
2023-01-17T07:51:28.344Z,10.70
2023-01-17T07:54:31.214Z,10.40
2023-01-17T07:57:34.078Z,10.20
2023-01-17T08:00:39.285Z,10.80
2023-01-17T08:03:42.411Z,10.00
2023-01-17T08:06:53.200Z,11.50
2023-01-17T08:09:55.998Z,11.30
2023-01-17T08:12:58.818Z,10.80
2023-01-17T08:16:03.443Z,14.60
2023-01-17T08:19:13.753Z,12.40
2023-01-17T08:22:16.760Z,19.90
2023-01-17T08:25:19.641Z,24.60
2023-01-17T08:28:22.380Z,13.00
2023-01-17T08:31:25.553Z,12.50
2023-01-17T08:34:28.382Z,13.20
2023-01-17T08:37:31.166Z,27.60
2023-01-17T08:40:33.897Z,26.10
2023-01-17T08:43:36.804Z,16.10
2023-01-17T08:46:42.974Z,58.50
2023-01-17T08:49:45.834Z,79.40
2023-01-17T08:52:49.013Z,70.70
2023-01-17T08:55:58.860Z,38.90
2023-01-17T08:59:03.118Z,18.60
2023-01-17T09:02:16.402Z,36.30
2023-01-17T09:05:19.288Z,27.40
2023-01-17T09:08:21.983Z,15.80
2023-01-17T09:11:24.850Z,14.70
2023-01-17T09:14:27.616Z,20.70
2023-01-17T09:17:30.327Z,14.50
2023-01-17T09:20:33.844Z,17.90
2023-01-17T09:23:36.734Z,13.90
2023-01-17T09:26:39.531Z,22.50
2023-01-17T09:29:42.284Z,19.00
2023-01-17T09:32:52.390Z,43.50
2023-01-17T09:35:55.191Z,65.70
2023-01-17T09:38:58.939Z,67.50
2023-01-17T09:42:22.654Z,95.40
2023-01-17T09:45:30.509Z,134.80
2023-01-17T09:48:42.012Z,205.20
2023-01-17T09:51:47.805Z,172.40
2023-01-17T09:54:51.654Z,158.40
2023-01-17T09:58:12.026Z,41.20
2023-01-17T10:01:27.399Z,114.70
2023-01-17T10:04:53.502Z,75.20
2023-01-17T10:08:14.314Z,22.80
2023-01-17T10:11:41.470Z,24.90
2023-01-17T10:15:07.353Z,47.30
2023-01-17T10:18:40.162Z,92.40
2023-01-17T10:22:23.247Z,228.50
2023-01-17T10:25:55.805Z,148.80
2023-01-17T10:29:02.714Z,127.40
2023-01-17T10:35:21.491Z,82.30
2023-01-17T10:38:29.955Z,129.50
2023-01-17T10:41:40.555Z,575.10
2023-01-17T10:45:05.756Z,78.40
2023-01-17T10:48:18.662Z,44.30
2023-01-17T10:51:52.293Z,71.00
2023-01-17T10:55:05.097Z,29.80
2023-01-17T10:58:12.481Z,22.60
2023-01-17T11:01:20.927Z,21.00
2023-01-17T11:04:35.065Z,11.10
2023-01-17T11:07:40.012Z,18.50
2023-01-17T11:10:54.296Z,21.50
2023-01-17T11:14:04.635Z,11.30
2023-01-17T11:17:07.601Z,14.70
2023-01-17T11:20:36.991Z,24.20
2023-01-17T11:23:46.376Z,29.20
2023-01-17T11:26:49.518Z,21.10
2023-01-17T11:30:19.862Z,31.10
2023-01-17T11:33:50.613Z,37.00
2023-01-17T11:37:17.186Z,24.50
2023-01-17T11:40:28.924Z,27.80
2023-01-17T11:43:31.687Z,31.30
2023-01-17T11:46:34.464Z,42.30
2023-01-17T11:49:38.580Z,12.40
2023-01-17T11:52:41.761Z,11.90
2023-01-17T11:56:08.586Z,14.80
2023-01-17T11:59:22.084Z,37.70
2023-01-17T12:02:36.881Z,8.90
2023-01-17T12:05:48.390Z,29.90
2023-01-17T12:09:41.123Z,21.90
2023-01-17T12:13:18.103Z,9.10
2023-01-17T12:16:43.917Z,13.70
2023-01-17T12:20:05.496Z,15.10
2023-01-17T12:24:07.006Z,10.20
2023-01-17T12:27:25.264Z,18.20
2023-01-17T12:31:02.657Z,9.70
2023-01-17T12:34:24.489Z,17.00
2023-01-17T12:37:37.703Z,32.30
2023-01-17T12:40:50.155Z,9.00
2023-01-17T12:44:01.687Z,7.10
2023-01-17T12:47:07.407Z,7.80
2023-01-17T12:50:22.668Z,11.30
2023-01-17T12:53:45.575Z,10.80
2023-01-17T12:56:59.121Z,17.40
2023-01-17T13:00:12.373Z,10.20
2023-01-17T13:03:36.315Z,9.40
2023-01-17T13:06:48.414Z,6.90
2023-01-17T13:10:05.551Z,6.70
2023-01-17T13:13:32.758Z,6.40
2023-01-17T13:17:05.123Z,9.10
2023-01-17T13:20:42.394Z,8.40
2023-01-17T13:23:55.913Z,6.80
2023-01-17T13:27:01.703Z,13.80
2023-01-17T13:30:26.528Z,10.10
2023-01-17T13:33:38.729Z,11.00
2023-01-17T13:36:50.666Z,8.20
2023-01-17T13:40:19.129Z,9.70
2023-01-17T13:44:05.720Z,9.70
2023-01-17T13:47:37.335Z,6.50
2023-01-17T13:50:58.693Z,7.30
2023-01-17T13:54:01.584Z,8.40
2023-01-17T13:57:43.889Z,9.50
2023-01-17T14:00:50.419Z,8.60
2023-01-17T14:03:56.038Z,9.20
2023-01-17T14:07:01.225Z,11.10
2023-01-17T14:10:29.657Z,9.80
2023-01-17T14:13:38.608Z,8.40
2023-01-17T14:16:41.560Z,9.80
2023-01-17T14:19:50.260Z,10.40
2023-01-17T14:22:56.583Z,42.70
2023-01-17T14:26:12.302Z,25.90
2023-01-17T14:29:45.661Z,46.50
2023-01-17T14:33:04.761Z,53.80
2023-01-17T14:36:24.756Z,138.60
2023-01-17T14:39:27.478Z,78.80
2023-01-17T14:42:33.195Z,30.40
2023-01-17T14:45:36.989Z,40.00
2023-01-17T14:48:40.993Z,68.90
2023-01-17T14:51:47.741Z,151.30
2023-01-17T14:54:52.584Z,186.70
2023-01-17T14:57:56.839Z,98.90
2023-01-17T15:01:10.073Z,57.80
2023-01-17T15:04:26.574Z,276.20
2023-01-17T15:07:32.346Z,362.80
2023-01-17T15:10:35.531Z,575.60
2023-01-17T15:13:45.285Z,448.30
2023-01-17T15:16:51.918Z,439.80
2023-01-17T15:20:05.752Z,418.40
2023-01-17T15:23:23.424Z,563.40
2023-01-17T15:26:39.029Z,406.20
2023-01-17T15:29:43.198Z,128.90
2023-01-17T15:32:51.218Z,63.60
2023-01-17T15:36:04.978Z,231.30
2023-01-17T15:39:30.386Z,235.20
2023-01-17T15:45:57.086Z,107.70
2023-01-17T15:49:08.483Z,208.10
2023-01-17T15:52:16.514Z,159.80
2023-01-17T15:55:23.271Z,119.20
2023-01-17T15:58:28.761Z,100.10
2023-01-17T16:01:31.624Z,125.70
2023-01-17T16:04:37.345Z,81.70
2023-01-17T16:07:40.103Z,55.20
2023-01-17T16:10:44.521Z,57.70
2023-01-17T16:13:48.575Z,46.40
2023-01-17T16:16:52.924Z,33.50
2023-01-17T16:19:55.913Z,32.70
2023-01-17T16:23:00.394Z,44.40
2023-01-17T16:26:05.295Z,48.30
2023-01-17T16:29:08.274Z,52.40
2023-01-17T16:32:15.572Z,67.20
2023-01-17T16:35:27.877Z,107.80
2023-01-17T16:38:32.266Z,82.90
2023-01-17T16:41:35.042Z,49.10
2023-01-17T16:44:39.134Z,62.00
2023-01-17T16:47:43.827Z,498.10
2023-01-17T16:50:52.266Z,221.90
2023-01-17T16:53:55.161Z,117.40
2023-01-17T16:56:57.962Z,224.10
2023-01-17T17:00:00.978Z,244.10
2023-01-17T17:03:04.102Z,278.90
2023-01-17T17:06:07.389Z,319.80
2023-01-17T17:09:10.187Z,393.10
2023-01-17T17:12:14.511Z,430.90
2023-01-17T17:15:17.464Z,324.60
2023-01-17T17:18:21.500Z,218.30
2023-01-17T17:21:26.046Z,211.80
2023-01-17T17:24:28.898Z,327.70
2023-01-17T17:27:31.917Z,427.70
2023-01-17T17:30:36.155Z,305.90
2023-01-17T17:33:39.227Z,272.10
2023-01-17T17:36:42.343Z,245.50
2023-01-17T17:39:45.365Z,417.60
2023-01-17T17:42:48.252Z,443.30
2023-01-17T17:45:51.127Z,307.30
2023-01-17T17:48:53.926Z,327.10
2023-01-17T17:52:04.460Z,309.30
2023-01-17T17:55:07.841Z,284.80
2023-01-17T17:58:10.568Z,318.90
2023-01-17T18:01:13.559Z,298.10
2023-01-17T18:04:16.814Z,332.80
2023-01-17T18:07:20.024Z,173.60
2023-01-17T18:10:22.790Z,102.30
2023-01-17T18:13:25.659Z,114.80
2023-01-17T18:16:35.180Z,131.10
2023-01-17T18:19:38.849Z,99.30
2023-01-17T18:22:42.123Z,84.70
2023-01-17T18:25:45.262Z,163.80
2023-01-17T18:28:48.819Z,745.00
2023-01-17T18:31:53.223Z,443.90
2023-01-17T18:34:56.030Z,220.20
2023-01-17T18:37:59.048Z,188.20
2023-01-17T18:41:03.499Z,288.70
2023-01-17T18:44:09.829Z,321.00
2023-01-17T18:47:13.033Z,163.10
2023-01-17T18:50:16.035Z,190.90
2023-01-17T18:53:18.893Z,133.20
2023-01-17T18:56:24.594Z,140.20
2023-01-17T18:59:27.391Z,130.80
2023-01-17T19:02:30.175Z,131.00
2023-01-17T19:05:36.179Z,165.00
2023-01-17T19:08:39.744Z,163.30
2023-01-17T19:11:45.135Z,128.10
2023-01-17T19:14:47.942Z,164.60
2023-01-17T19:17:50.725Z,159.90
2023-01-17T19:20:53.958Z,177.60
2023-01-17T19:23:57.622Z,230.10
2023-01-17T19:27:00.342Z,383.00
2023-01-17T19:30:03.545Z,359.20
2023-01-17T19:33:06.328Z,464.10
2023-01-17T19:36:13.554Z,244.10
2023-01-17T19:39:17.439Z,279.10
2023-01-17T19:42:20.426Z,343.40
2023-01-17T19:45:23.159Z,180.10
2023-01-17T19:48:27.417Z,172.50
2023-01-17T19:51:30.455Z,123.40
2023-01-17T19:54:33.538Z,110.30
2023-01-17T19:57:37.353Z,125.00
2023-01-17T20:00:46.470Z,121.80
2023-01-17T20:03:52.194Z,134.60
2023-01-17T20:06:55.124Z,143.40
2023-01-17T20:09:58.052Z,150.10
2023-01-17T20:13:00.818Z,153.60
2023-01-17T20:16:06.641Z,150.80
2023-01-17T20:19:09.418Z,141.70
2023-01-17T20:22:12.391Z,146.80
2023-01-17T20:25:15.254Z,154.10
2023-01-17T20:28:18.030Z,165.70
2023-01-17T20:31:23.316Z,175.70
2023-01-17T20:34:26.273Z,230.80
2023-01-17T20:37:29.039Z,199.40
2023-01-17T20:40:31.965Z,172.90
2023-01-17T20:43:35.059Z,195.40
2023-01-17T20:46:41.308Z,195.00
2023-01-17T20:49:44.301Z,174.50
2023-01-17T20:52:48.462Z,186.00
2023-01-17T20:55:56.699Z,170.80
2023-01-17T20:59:00.028Z,138.20
2023-01-17T21:02:03.041Z,162.80
2023-01-17T21:05:06.964Z,140.60
2023-01-17T21:08:09.676Z,147.90
2023-01-17T21:11:15.281Z,152.50
2023-01-17T21:14:19.996Z,158.10
2023-01-17T21:17:22.869Z,165.10
2023-01-17T21:20:29.032Z,184.30
2023-01-17T21:23:31.797Z,144.60
2023-01-17T21:26:34.935Z,154.70
2023-01-17T21:29:37.685Z,183.00
2023-01-17T21:32:40.442Z,170.90
2023-01-17T21:35:44.027Z,186.60
2023-01-17T21:38:52.586Z,183.60
2023-01-17T21:41:55.319Z,240.40
2023-01-17T21:44:58.118Z,335.00
2023-01-17T21:48:01.615Z,196.90
2023-01-17T21:51:08.721Z,210.90
2023-01-17T21:54:11.595Z,233.10
2023-01-17T21:57:36.401Z,256.10
2023-01-17T22:00:43.151Z,314.10
2023-01-17T22:06:51.576Z,366.70
2023-01-17T22:09:59.102Z,307.40
2023-01-17T22:13:01.930Z,253.50
2023-01-17T22:16:08.663Z,257.90
2023-01-17T22:19:11.549Z,266.40
2023-01-17T22:22:14.302Z,275.80
2023-01-17T22:25:17.128Z,267.90
2023-01-17T22:28:19.896Z,256.00
2023-01-17T22:31:25.101Z,260.80
2023-01-17T22:34:27.932Z,296.20
2023-01-17T22:37:30.647Z,295.80
2023-01-17T22:40:36.181Z,308.50
2023-01-17T22:43:41.463Z,304.50
2023-01-17T22:46:44.430Z,299.50
2023-01-17T22:49:47.233Z,244.40
2023-01-17T22:52:50.401Z,270.40
2023-01-17T22:56:03.397Z,279.20
2023-01-17T22:59:11.449Z,285.40
2023-01-17T23:02:18.370Z,303.90
2023-01-17T23:05:24.406Z,275.90
2023-01-17T23:08:27.198Z,281.90
2023-01-17T23:11:38.879Z,292.20
2023-01-17T23:15:00.520Z,297.40
2023-01-17T23:18:21.890Z,279.50
2023-01-17T23:21:44.720Z,268.10
2023-01-17T23:24:50.241Z,248.70
2023-01-17T23:28:11.439Z,235.70
2023-01-17T23:31:14.245Z,244.30
2023-01-17T23:34:19.856Z,238.30
2023-01-17T23:37:47.112Z,248.50
2023-01-17T23:41:09.851Z,254.40
2023-01-17T23:44:12.606Z,250.80
2023-01-17T23:47:15.404Z,262.90
2023-01-17T23:50:18.238Z,254.10
2023-01-17T23:53:24.043Z,269.30
2023-01-17T23:56:26.797Z,274.00
2023-01-17T23:59:29.582Z,266.70
